createdAt,value
2017-10-05T00:00:38.080Z,75.70
2017-10-05T00:03:05.536Z,75.00
2017-10-05T00:05:33.005Z,75.30
2017-10-05T00:08:00.481Z,75.60
2017-10-05T00:10:27.950Z,75.40
2017-10-05T00:12:55.413Z,75.00
2017-10-05T00:15:22.931Z,75.00
2017-10-05T00:17:50.407Z,75.10
2017-10-05T00:20:17.872Z,75.90
2017-10-05T00:22:45.341Z,75.30
2017-10-05T00:25:12.810Z,75.10
2017-10-05T00:27:40.401Z,75.80
2017-10-05T00:30:08.633Z,74.90
2017-10-05T00:32:36.109Z,74.80
2017-10-05T00:35:03.592Z,74.60
2017-10-05T00:37:31.819Z,74.30
2017-10-05T00:39:59.308Z,74.20
2017-10-05T00:42:26.767Z,74.80
2017-10-05T00:44:54.244Z,74.20
2017-10-05T00:47:21.723Z,74.60
2017-10-05T00:49:49.188Z,74.50
2017-10-05T00:52:16.673Z,74.70
2017-10-05T00:54:44.131Z,74.90
2017-10-05T00:57:11.600Z,74.70
2017-10-05T00:59:39.050Z,75.20
2017-10-05T01:02:06.689Z,75.20
2017-10-05T01:04:34.263Z,75.00
2017-10-05T01:07:01.736Z,75.70
2017-10-05T01:09:29.988Z,76.50
2017-10-05T01:11:57.459Z,76.50
2017-10-05T01:14:25.026Z,76.80
2017-10-05T01:16:52.589Z,77.40
2017-10-05T01:19:20.069Z,77.50
2017-10-05T01:21:47.529Z,77.60
2017-10-05T01:24:14.981Z,77.70
2017-10-05T01:26:42.464Z,77.90
2017-10-05T01:29:10.017Z,77.40
2017-10-05T01:31:37.508Z,77.60
2017-10-05T01:34:04.977Z,77.60
2017-10-05T01:36:32.440Z,77.70
2017-10-05T01:38:59.904Z,77.70
2017-10-05T01:41:28.128Z,77.80
2017-10-05T01:43:55.608Z,77.80
2017-10-05T01:46:23.068Z,77.30
2017-10-05T01:48:50.534Z,77.80
2017-10-05T01:51:18.003Z,77.90
2017-10-05T01:53:45.484Z,78.20
2017-10-05T01:56:13.105Z,78.40
2017-10-05T01:58:41.301Z,77.70
2017-10-05T02:01:09.556Z,77.40
2017-10-05T02:03:37.028Z,77.40
2017-10-05T02:06:04.492Z,77.80
2017-10-05T02:08:32.884Z,77.40
2017-10-05T02:11:01.121Z,77.70
2017-10-05T02:13:28.583Z,77.70
2017-10-05T02:15:56.900Z,77.20
2017-10-05T02:18:24.360Z,77.20
2017-10-05T02:20:51.832Z,77.70
2017-10-05T02:23:19.306Z,77.20
2017-10-05T02:25:46.801Z,77.80
2017-10-05T02:28:14.275Z,77.70
2017-10-05T02:30:42.492Z,77.50
2017-10-05T02:33:09.953Z,77.50
2017-10-05T02:35:37.425Z,77.70
2017-10-05T02:38:05.026Z,77.90
2017-10-05T02:40:33.275Z,77.70
2017-10-05T02:43:00.728Z,77.70
2017-10-05T02:45:28.971Z,78.10
2017-10-05T02:47:56.435Z,77.80
2017-10-05T02:50:24.418Z,78.10
2017-10-05T02:52:51.885Z,77.90
2017-10-05T02:55:19.352Z,78.20
2017-10-05T02:57:47.720Z,78.10
2017-10-05T03:00:15.950Z,78.10
2017-10-05T03:02:43.419Z,78.10
2017-10-05T03:05:10.898Z,77.80
2017-10-05T03:07:38.369Z,78.20
2017-10-05T03:10:05.837Z,78.10
2017-10-05T03:12:34.160Z,77.80
2017-10-05T03:15:01.622Z,77.70
2017-10-05T03:17:29.100Z,77.80
2017-10-05T03:19:56.723Z,78.10
2017-10-05T03:22:24.186Z,77.70
2017-10-05T03:24:51.681Z,77.80
2017-10-05T03:27:19.156Z,78.00
2017-10-05T03:29:47.395Z,79.40
2017-10-05T03:32:14.961Z,78.70
2017-10-05T03:34:42.440Z,78.40
2017-10-05T03:37:10.090Z,78.20
2017-10-05T03:39:38.321Z,78.50
2017-10-05T03:42:05.797Z,78.50
2017-10-05T03:44:33.288Z,78.40
2017-10-05T03:47:01.522Z,79.30
2017-10-05T03:49:29.004Z,78.90
2017-10-05T03:51:56.533Z,79.00
2017-10-05T03:54:24.194Z,79.40
2017-10-05T03:56:51.691Z,79.30
2017-10-05T03:59:19.188Z,80.00
2017-10-05T04:01:46.658Z,79.20
2017-10-05T04:04:14.120Z,79.20
2017-10-05T04:06:41.593Z,79.30
2017-10-05T04:09:09.066Z,79.60
2017-10-05T04:11:38.049Z,79.40
2017-10-05T04:14:05.506Z,79.30
2017-10-05T04:16:32.976Z,79.40
2017-10-05T04:19:00.445Z,79.60
2017-10-05T04:21:27.912Z,79.60
2017-10-05T04:23:56.291Z,79.60
2017-10-05T04:26:24.740Z,79.80
2017-10-05T04:28:52.284Z,79.90
2017-10-05T04:31:19.959Z,79.80
2017-10-05T04:33:47.437Z,79.60
2017-10-05T04:36:14.918Z,79.40
2017-10-05T04:38:42.399Z,79.70
2017-10-05T04:41:09.873Z,80.40
2017-10-05T04:43:37.339Z,81.20
2017-10-05T04:46:04.807Z,81.40
2017-10-05T04:48:32.261Z,81.80
2017-10-05T04:50:59.736Z,82.10
2017-10-05T04:53:27.957Z,83.30
2017-10-05T04:55:55.433Z,83.20
2017-10-05T04:58:22.910Z,83.70
2017-10-05T05:00:50.364Z,84.50
2017-10-05T05:03:17.837Z,84.80
2017-10-05T05:05:46.112Z,86.70
2017-10-05T05:08:13.634Z,86.10
2017-10-05T05:10:41.081Z,87.50
2017-10-05T05:13:08.578Z,87.50
2017-10-05T05:15:36.044Z,88.30
2017-10-05T05:18:04.284Z,87.80
2017-10-05T05:20:31.760Z,87.80
2017-10-05T05:22:59.332Z,87.50
2017-10-05T05:25:26.867Z,87.60
2017-10-05T05:27:54.333Z,88.00
2017-10-05T05:30:21.797Z,87.10
2017-10-05T05:32:49.257Z,87.70
2017-10-05T05:35:16.738Z,87.70
2017-10-05T05:37:44.964Z,87.60
2017-10-05T05:40:12.432Z,87.70
2017-10-05T05:42:40.671Z,88.10
2017-10-05T05:45:08.130Z,88.00
2017-10-05T05:47:35.626Z,88.00
2017-10-05T05:50:03.088Z,88.60
2017-10-05T05:52:31.417Z,88.50
2017-10-05T05:54:58.890Z,88.30
2017-10-05T05:57:26.459Z,87.80
2017-10-05T05:59:53.962Z,88.20
2017-10-05T06:02:22.270Z,88.10
2017-10-05T06:04:49.754Z,88.10
2017-10-05T06:07:17.226Z,88.30
2017-10-05T06:09:44.701Z,87.40
2017-10-05T06:12:12.937Z,87.30
2017-10-05T06:14:40.402Z,87.30
2017-10-05T06:17:09.401Z,87.80
2017-10-05T06:19:36.855Z,87.10
2017-10-05T06:22:04.356Z,88.00
2017-10-05T06:24:31.817Z,87.80
2017-10-05T06:26:59.293Z,88.70
2017-10-05T06:29:26.769Z,88.60
2017-10-05T06:31:54.238Z,88.70
2017-10-05T06:34:21.718Z,88.70
2017-10-05T06:36:49.936Z,88.70
2017-10-05T06:39:17.440Z,88.10
2017-10-05T06:41:44.919Z,88.00
2017-10-05T06:44:13.186Z,87.80
2017-10-05T06:46:41.533Z,87.70
2017-10-05T06:49:09.012Z,87.70
2017-10-05T06:51:37.276Z,87.90
2017-10-05T06:54:04.745Z,87.10
2017-10-05T06:56:32.232Z,87.90
2017-10-05T06:58:59.711Z,88.40
2017-10-05T07:01:27.189Z,88.10
2017-10-05T07:03:54.648Z,88.00
2017-10-05T07:06:22.141Z,87.90
2017-10-05T07:08:50.371Z,87.80
2017-10-05T07:11:17.844Z,87.80
2017-10-05T07:13:45.313Z,88.10
2017-10-05T07:16:12.776Z,88.30
2017-10-05T07:18:41.023Z,88.60
2017-10-05T07:21:08.478Z,88.60
2017-10-05T07:23:36.021Z,88.90
2017-10-05T07:26:03.516Z,89.30
2017-10-05T07:28:30.972Z,90.00
2017-10-05T07:30:58.524Z,90.10
2017-10-05T07:33:25.992Z,90.20
2017-10-05T07:35:53.460Z,90.30
2017-10-05T07:38:21.684Z,90.70
2017-10-05T07:40:49.164Z,90.60
2017-10-05T07:43:16.636Z,90.70
2017-10-05T07:45:44.114Z,90.90
2017-10-05T07:48:12.354Z,91.40
2017-10-05T07:50:39.942Z,91.40
2017-10-05T07:53:08.185Z,91.90
2017-10-05T07:55:35.722Z,91.90
2017-10-05T07:58:03.192Z,91.90
2017-10-05T08:00:30.649Z,92.00
2017-10-05T08:02:58.121Z,92.20
2017-10-05T08:05:25.704Z,92.20
2017-10-05T08:07:53.945Z,92.20
2017-10-05T08:10:21.429Z,92.20
2017-10-05T08:12:49.685Z,92.20
2017-10-05T08:15:17.153Z,92.20
2017-10-05T08:17:45.468Z,92.40
2017-10-05T08:20:12.939Z,92.50
2017-10-05T08:22:40.417Z,92.20
2017-10-05T08:25:08.004Z,92.40
2017-10-05T08:27:35.479Z,92.40
2017-10-05T08:30:03.702Z,92.50
2017-10-05T08:32:31.181Z,92.50
2017-10-05T08:34:58.657Z,92.40
2017-10-05T08:37:26.919Z,92.50
2017-10-05T08:39:54.512Z,92.50
2017-10-05T08:42:22.801Z,92.50
2017-10-05T08:44:50.396Z,92.50
2017-10-05T08:47:18.056Z,92.50
2017-10-05T08:49:45.548Z,92.60
2017-10-05T08:52:13.981Z,92.70
2017-10-05T08:54:41.476Z,92.70
2017-10-05T08:57:08.941Z,92.50
2017-10-05T08:59:37.181Z,92.40
2017-10-05T09:02:04.665Z,92.40
2017-10-05T09:04:32.261Z,92.40
2017-10-05T09:06:59.872Z,92.40
2017-10-05T09:09:27.325Z,92.40
2017-10-05T09:11:54.902Z,92.70
2017-10-05T09:14:23.133Z,92.40
2017-10-05T09:16:50.596Z,92.40
2017-10-05T09:19:18.057Z,92.50
2017-10-05T09:21:45.526Z,92.30
2017-10-05T09:24:13.040Z,92.20
2017-10-05T09:26:40.494Z,92.30
2017-10-05T09:29:07.969Z,92.50
2017-10-05T09:31:35.429Z,92.20
2017-10-05T09:34:02.894Z,92.40
2017-10-05T09:36:30.972Z,92.40
2017-10-05T09:38:58.438Z,92.40
2017-10-05T09:41:25.988Z,92.30
2017-10-05T09:43:53.544Z,92.20
2017-10-05T09:46:21.216Z,92.10
2017-10-05T09:48:48.700Z,92.20
2017-10-05T09:51:16.953Z,92.10
2017-10-05T09:53:44.512Z,92.00
2017-10-05T09:56:11.985Z,92.10
2017-10-05T09:58:39.438Z,91.90
2017-10-05T10:01:06.906Z,91.70
2017-10-05T10:03:35.139Z,91.50
2017-10-05T10:06:02.746Z,91.50
2017-10-05T10:08:30.969Z,91.30
2017-10-05T10:10:58.424Z,91.30
2017-10-05T10:13:25.895Z,91.70
2017-10-05T10:15:53.368Z,91.90
2017-10-05T10:18:20.853Z,91.90
2017-10-05T10:20:49.309Z,92.50
2017-10-05T10:23:17.538Z,92.60
2017-10-05T10:25:45.015Z,92.60
2017-10-05T10:28:12.469Z,92.50
2017-10-05T10:30:39.934Z,91.70
2017-10-05T10:33:07.393Z,90.50
2017-10-05T10:35:34.861Z,90.60
2017-10-05T10:38:02.328Z,90.40
2017-10-05T10:40:31.309Z,87.30
2017-10-05T10:42:58.778Z,87.20
2017-10-05T10:45:27.017Z,87.70
2017-10-05T10:47:54.508Z,87.60
2017-10-05T10:50:22.741Z,88.20
2017-10-05T10:52:51.177Z,88.30
2017-10-05T10:55:19.408Z,86.40
2017-10-05T10:57:46.896Z,86.40
2017-10-05T11:00:14.427Z,87.60
2017-10-05T11:02:41.904Z,86.90
2017-10-05T11:05:09.368Z,85.00
2017-10-05T11:07:36.878Z,84.50
2017-10-05T11:10:04.352Z,82.60
2017-10-05T11:12:31.816Z,79.70
2017-10-05T11:17:33.185Z,78.30
2017-10-05T11:20:00.657Z,75.90
2017-10-05T11:22:28.115Z,74.20
2017-10-05T11:24:55.595Z,75.00
2017-10-05T11:27:23.865Z,75.70
2017-10-05T11:29:52.121Z,75.70
2017-10-05T11:32:19.577Z,75.70
2017-10-05T11:34:47.944Z,76.20
2017-10-05T11:37:15.431Z,76.10
2017-10-05T11:39:43.781Z,72.50
2017-10-05T11:42:11.276Z,72.40
2017-10-05T11:44:38.742Z,72.60
2017-10-05T11:47:06.282Z,73.10
2017-10-05T11:49:34.517Z,71.00
2017-10-05T11:52:01.995Z,70.90
2017-10-05T11:54:29.466Z,68.00
2017-10-05T11:57:00.035Z,65.30
2017-10-05T11:59:28.013Z,65.10
2017-10-05T12:01:55.482Z,61.50
2017-10-05T12:04:22.964Z,61.40
2017-10-05T12:06:50.431Z,59.40
2017-10-05T12:09:18.673Z,60.20
2017-10-05T12:11:46.138Z,59.60
2017-10-05T12:14:13.597Z,60.30
2017-10-05T12:16:41.838Z,60.00
2017-10-05T12:19:09.371Z,59.90
2017-10-05T12:21:36.841Z,59.10
2017-10-05T12:24:04.434Z,58.10
2017-10-05T12:26:31.928Z,58.50
2017-10-05T12:29:00.152Z,56.60
2017-10-05T12:31:27.714Z,56.60
2017-10-05T12:33:55.190Z,56.50
2017-10-05T12:36:22.667Z,57.30
2017-10-05T12:38:50.142Z,55.70
2017-10-05T12:41:18.548Z,57.90
2017-10-05T12:43:46.046Z,57.90
2017-10-05T12:46:14.393Z,62.50
2017-10-05T12:48:41.866Z,62.60
2017-10-05T12:51:09.350Z,61.90
2017-10-05T12:53:36.822Z,65.10
2017-10-05T12:56:05.070Z,71.00
2017-10-05T12:58:32.554Z,70.90
2017-10-05T13:01:00.786Z,73.50
2017-10-05T13:03:28.263Z,73.50
2017-10-05T13:05:55.781Z,73.70
2017-10-05T13:08:23.273Z,76.40
2017-10-05T13:10:50.741Z,78.40
2017-10-05T13:13:18.211Z,79.30
2017-10-05T13:15:46.464Z,78.30
2017-10-05T13:18:13.938Z,78.20
2017-10-05T13:20:41.400Z,77.10
2017-10-05T13:23:09.634Z,77.10
2017-10-05T13:25:37.106Z,76.90
2017-10-05T13:28:06.103Z,76.40
2017-10-05T13:30:33.575Z,76.40
2017-10-05T13:33:01.827Z,77.70
2017-10-05T13:35:29.291Z,77.60
2017-10-05T13:37:56.790Z,78.30
2017-10-05T13:40:25.063Z,73.10
2017-10-05T13:42:52.531Z,73.10
2017-10-05T13:45:19.997Z,69.50
2017-10-05T13:47:47.478Z,68.70
2017-10-05T13:50:14.933Z,68.20
2017-10-05T13:52:42.406Z,68.40
2017-10-05T13:55:10.270Z,67.80
2017-10-05T13:57:38.193Z,65.60
2017-10-05T14:00:05.664Z,67.80
2017-10-05T14:02:33.128Z,67.40
2017-10-05T14:05:00.607Z,67.20
2017-10-05T14:07:29.072Z,65.20
2017-10-05T14:09:57.406Z,65.30
2017-10-05T14:12:24.873Z,66.50
2017-10-05T14:14:52.354Z,66.60
2017-10-05T14:17:20.452Z,68.30
2017-10-05T14:19:48.766Z,67.50
2017-10-05T14:22:16.226Z,67.50
2017-10-05T14:24:43.712Z,67.10
2017-10-05T14:27:11.301Z,67.60
2017-10-05T14:29:39.294Z,66.70
2017-10-05T14:32:07.521Z,67.60
2017-10-05T14:34:35.001Z,67.50
2017-10-05T14:37:07.637Z,66.70
2017-10-05T14:39:35.115Z,66.50
2017-10-05T14:42:02.605Z,66.50
2017-10-05T14:44:31.047Z,65.20
2017-10-05T14:46:58.505Z,65.10
2017-10-05T14:49:25.974Z,66.20
2017-10-05T14:51:53.462Z,65.70
2017-10-05T14:54:21.145Z,63.70
2017-10-05T14:56:48.600Z,64.50
2017-10-05T14:59:16.065Z,64.60
2017-10-05T15:01:43.563Z,63.80
2017-10-05T15:04:11.044Z,63.70
2017-10-05T15:06:39.276Z,65.80
2017-10-05T15:09:06.744Z,65.10
2017-10-05T15:11:34.204Z,65.70
2017-10-05T15:14:01.691Z,66.90
2017-10-05T15:16:29.914Z,67.00
2017-10-05T15:18:57.401Z,67.00
2017-10-05T15:21:24.869Z,67.40
2017-10-05T15:23:54.058Z,67.10
2017-10-05T15:26:21.673Z,67.00
2017-10-05T15:28:49.122Z,66.40
2017-10-05T15:31:16.604Z,66.20
2017-10-05T15:33:44.078Z,66.80
2017-10-05T15:36:11.561Z,67.20
2017-10-05T15:38:39.062Z,66.90
2017-10-05T15:41:07.346Z,67.30
2017-10-05T15:43:34.831Z,67.30
2017-10-05T15:46:02.475Z,67.00
2017-10-05T15:48:29.950Z,67.80
2017-10-05T15:50:57.421Z,66.60
2017-10-05T15:53:24.907Z,66.90
2017-10-05T15:55:53.142Z,66.40
2017-10-05T15:58:20.620Z,66.40
2017-10-05T16:00:48.089Z,67.00
2017-10-05T16:03:16.341Z,66.60
2017-10-05T16:05:43.972Z,66.60
2017-10-05T16:08:11.493Z,66.30
2017-10-05T16:10:39.723Z,65.70
2017-10-05T16:13:07.185Z,65.60
2017-10-05T16:15:34.677Z,66.10
2017-10-05T16:18:03.023Z,66.10
2017-10-05T16:20:30.480Z,66.00
2017-10-05T16:22:57.966Z,66.90
2017-10-05T16:25:26.196Z,68.00
2017-10-05T16:27:53.656Z,67.90
2017-10-05T16:30:21.164Z,68.80
2017-10-05T16:32:48.630Z,69.30
2017-10-05T16:35:16.100Z,69.40
2017-10-05T16:37:43.797Z,69.10
2017-10-05T16:40:11.285Z,69.00
2017-10-05T16:42:38.857Z,69.80
2017-10-05T16:45:06.354Z,69.80
2017-10-05T16:47:33.811Z,70.10
2017-10-05T16:50:01.477Z,70.20
2017-10-05T16:52:28.927Z,70.60
2017-10-05T16:54:56.488Z,68.90
2017-10-05T16:57:23.989Z,69.80
2017-10-05T16:59:52.261Z,70.10
2017-10-05T17:02:26.999Z,70.10
2017-10-05T17:05:11.012Z,70.40
2017-10-05T17:07:43.223Z,70.60
2017-10-05T17:10:10.873Z,70.80
2017-10-05T17:12:39.478Z,72.20
2017-10-05T17:15:06.974Z,72.20
2017-10-05T17:17:34.491Z,73.00
2017-10-05T17:20:01.991Z,73.50
2017-10-05T17:22:29.644Z,72.90
2017-10-05T17:24:57.338Z,73.20
2017-10-05T17:27:24.986Z,74.10
2017-10-05T17:29:52.581Z,74.30
2017-10-05T17:32:20.712Z,74.20
2017-10-05T17:34:48.310Z,74.60
2017-10-05T17:37:16.876Z,74.20
2017-10-05T17:39:46.508Z,74.40
2017-10-05T17:42:15.068Z,74.10
2017-10-05T17:44:42.855Z,74.00
2017-10-05T17:47:10.399Z,74.30
2017-10-05T17:49:39.010Z,73.50
2017-10-05T17:52:06.498Z,73.40
2017-10-05T17:54:33.987Z,73.50
2017-10-05T17:57:02.220Z,73.10
2017-10-05T17:59:30.132Z,73.00
2017-10-05T18:01:58.489Z,73.40
2017-10-05T18:04:28.238Z,73.70
2017-10-05T18:06:55.729Z,73.70
2017-10-05T18:09:23.420Z,74.10
2017-10-05T18:11:50.897Z,73.50
2017-10-05T18:14:19.851Z,73.70
2017-10-05T18:16:48.547Z,73.70
2017-10-05T18:19:16.071Z,73.10
2017-10-05T18:21:43.590Z,73.50
2017-10-05T18:24:12.021Z,73.30
2017-10-05T18:26:40.591Z,73.30
2017-10-05T18:29:08.825Z,73.40
2017-10-05T18:31:38.147Z,73.50
2017-10-05T18:34:06.605Z,73.10
2017-10-05T18:36:35.030Z,73.40
2017-10-05T18:39:02.544Z,73.40
2017-10-05T18:41:30.517Z,73.80
2017-10-05T18:43:59.868Z,74.10
2017-10-05T18:46:28.191Z,74.00
2017-10-05T18:48:56.458Z,73.50
2017-10-05T18:51:26.915Z,73.30
2017-10-05T18:54:02.227Z,73.30
2017-10-05T18:56:30.073Z,73.70
2017-10-05T18:58:57.990Z,73.90
2017-10-05T19:01:25.598Z,74.00
2017-10-05T19:03:54.505Z,74.00
2017-10-05T19:06:27.646Z,74.20
2017-10-05T19:08:55.125Z,74.20
2017-10-05T19:11:22.867Z,74.80
2017-10-05T19:13:50.391Z,74.90
2017-10-05T19:16:18.671Z,75.20
2017-10-05T19:18:46.946Z,75.40
2017-10-05T19:21:15.258Z,75.30
2017-10-05T19:23:42.737Z,75.30
2017-10-05T19:26:10.371Z,74.90
2017-10-05T19:28:37.863Z,75.70
2017-10-05T19:31:05.357Z,74.80
2017-10-05T19:33:32.852Z,74.60
2017-10-05T19:36:00.334Z,74.70
2017-10-05T19:38:27.835Z,75.40
2017-10-05T19:40:55.446Z,75.10
2017-10-05T19:43:22.944Z,75.10
2017-10-05T19:45:51.191Z,75.10
2017-10-05T19:48:18.686Z,75.10
2017-10-05T19:50:48.304Z,75.10
2017-10-05T19:53:16.082Z,75.10
2017-10-05T19:55:43.573Z,75.10
2017-10-05T19:58:11.844Z,75.60
2017-10-05T20:00:39.426Z,75.60
2017-10-05T20:03:06.942Z,75.80
2017-10-05T20:05:34.675Z,76.10
2017-10-05T20:08:02.743Z,76.00
2017-10-05T20:10:30.326Z,75.70
2017-10-05T20:12:57.835Z,75.90
2017-10-05T20:15:28.875Z,76.00
2017-10-05T20:18:01.357Z,76.50
2017-10-05T20:20:46.891Z,75.70
2017-10-05T20:23:14.855Z,75.70
2017-10-05T20:25:57.388Z,75.70
2017-10-05T20:31:33.193Z,75.60
2017-10-05T20:34:02.389Z,75.40
2017-10-05T20:36:30.873Z,75.50
2017-10-05T20:38:59.668Z,75.80
2017-10-05T20:41:27.209Z,75.80
2017-10-05T20:43:54.738Z,76.40
2017-10-05T20:46:22.324Z,76.20
2017-10-05T20:48:49.795Z,75.90
2017-10-05T20:51:18.682Z,75.70
2017-10-05T20:53:47.397Z,76.00
2017-10-05T20:56:15.741Z,76.00
2017-10-05T20:58:44.849Z,76.50
2017-10-05T21:01:14.147Z,76.10
2017-10-05T21:03:42.962Z,76.10
2017-10-05T21:06:10.471Z,76.10
2017-10-05T21:08:39.150Z,76.10
2017-10-05T21:11:06.641Z,76.00
2017-10-05T21:13:34.488Z,75.80
2017-10-05T21:16:02.772Z,76.30
2017-10-05T21:18:31.402Z,76.30
2017-10-05T21:20:58.873Z,76.10
2017-10-05T21:23:26.359Z,76.20
2017-10-05T21:25:53.853Z,76.50
2017-10-05T21:28:21.351Z,76.70
2017-10-05T21:30:48.834Z,76.50
2017-10-05T21:33:17.079Z,76.70
2017-10-05T21:35:44.570Z,76.70
2017-10-05T21:38:12.810Z,76.00
2017-10-05T21:40:40.303Z,76.00
2017-10-05T21:43:08.566Z,76.00
2017-10-05T21:45:36.034Z,76.00
2017-10-05T21:48:04.299Z,75.90
2017-10-05T21:50:32.534Z,76.00
2017-10-05T21:53:00.013Z,75.90
2017-10-05T21:55:27.503Z,75.70
2017-10-05T21:57:55.753Z,75.90
2017-10-05T22:00:24.742Z,76.00
2017-10-05T22:02:52.218Z,75.90
2017-10-05T22:05:20.479Z,76.20
2017-10-05T22:07:48.119Z,76.20
2017-10-05T22:10:15.606Z,76.20
2017-10-05T22:12:43.074Z,76.50
2017-10-05T22:15:11.311Z,76.30
2017-10-05T22:17:38.796Z,76.30
2017-10-05T22:20:07.122Z,75.80
2017-10-05T22:22:34.657Z,75.70
2017-10-05T22:25:04.367Z,77.00
2017-10-05T22:27:31.838Z,76.20
2017-10-05T22:29:59.311Z,76.60
2017-10-05T22:32:26.865Z,76.90
2017-10-05T22:34:54.338Z,77.40
2017-10-05T22:37:21.827Z,77.40
2017-10-05T22:39:49.282Z,77.80
2017-10-05T22:42:17.534Z,78.20
2017-10-05T22:44:45.014Z,78.20
2017-10-05T22:47:13.257Z,78.60
2017-10-05T22:49:40.731Z,78.50
2017-10-05T22:52:08.215Z,78.60
2017-10-05T22:54:36.453Z,78.90
2017-10-05T22:57:03.940Z,78.90
2017-10-05T22:59:32.170Z,78.60
2017-10-05T23:01:59.653Z,78.60
2017-10-05T23:04:27.133Z,78.70
2017-10-05T23:06:55.385Z,78.70
2017-10-05T23:09:22.860Z,78.60
2017-10-05T23:11:51.094Z,78.80
2017-10-05T23:14:18.582Z,78.70
2017-10-05T23:16:46.194Z,78.60
2017-10-05T23:19:13.667Z,78.70
2017-10-05T23:21:41.134Z,78.80
2017-10-05T23:24:08.590Z,78.60
2017-10-05T23:26:36.093Z,78.80
2017-10-05T23:29:04.324Z,79.00
2017-10-05T23:31:31.787Z,78.90
2017-10-05T23:33:59.429Z,78.50
2017-10-05T23:36:27.684Z,78.40
2017-10-05T23:38:55.182Z,78.20
2017-10-05T23:41:22.663Z,78.80
2017-10-05T23:43:51.060Z,78.30
2017-10-05T23:46:19.307Z,78.60
2017-10-05T23:48:46.778Z,78.60
2017-10-05T23:51:15.019Z,78.80
2017-10-05T23:53:42.498Z,78.60
2017-10-05T23:56:09.962Z,78.90
2017-10-05T23:58:38.211Z,79.10
